sensor_id;sensor_type;location;lat;lon;timestamp;P1;durP1;ratioP1;P2;durP2;ratioP2
52534;SDS011;38443;53.164;5.802;2024-01-25T00:04:40;16.98;;;6.82;;
52534;SDS011;38443;53.164;5.802;2024-01-25T00:07:07;17.73;;;4.97;;
52534;SDS011;38443;53.164;5.802;2024-01-25T00:09:33;22.23;;;4.80;;
52534;SDS011;38443;53.164;5.802;2024-01-25T00:14:24;14.45;;;4.70;;
52534;SDS011;38443;53.164;5.802;2024-01-25T00:19:14;18.35;;;4.85;;
52534;SDS011;38443;53.164;5.802;2024-01-25T00:21:43;23.73;;;5.55;;
52534;SDS011;38443;53.164;5.802;2024-01-25T00:24:12;13.70;;;5.32;;
52534;SDS011;38443;53.164;5.802;2024-01-25T00:26:38;24.10;;;4.93;;
52534;SDS011;38443;53.164;5.802;2024-01-25T00:31:29;22.00;;;5.40;;
52534;SDS011;38443;53.164;5.802;2024-01-25T00:36:20;16.95;;;5.43;;
52534;SDS011;38443;53.164;5.802;2024-01-25T00:41:11;17.67;;;5.18;;
52534;SDS011;38443;53.164;5.802;2024-01-25T00:43:42;15.52;;;5.13;;
52534;SDS011;38443;53.164;5.802;2024-01-25T00:48:34;22.02;;;5.60;;
52534;SDS011;38443;53.164;5.802;2024-01-25T00:53:25;16.27;;;5.22;;
52534;SDS011;38443;53.164;5.802;2024-01-25T00:55:50;22.73;;;5.53;;
52534;SDS011;38443;53.164;5.802;2024-01-25T00:58:16;26.52;;;6.35;;
52534;SDS011;38443;53.164;5.802;2024-01-25T01:00:42;18.08;;;5.40;;
52534;SDS011;38443;53.164;5.802;2024-01-25T01:03:07;12.90;;;6.25;;
52534;SDS011;38443;53.164;5.802;2024-01-25T01:07:58;12.23;;;4.18;;
52534;SDS011;38443;53.164;5.802;2024-01-25T01:12:49;19.48;;;6.05;;
52534;SDS011;38443;53.164;5.802;2024-01-25T03:28:05;17.97;;;5.07;;
52534;SDS011;38443;53.164;5.802;2024-01-25T05:43:05;28.17;;;6.43;;
52534;SDS011;38443;53.164;5.802;2024-01-25T05:47:56;22.13;;;6.10;;
52534;SDS011;38443;53.164;5.802;2024-01-25T05:52:46;30.20;;;5.00;;
52534;SDS011;38443;53.164;5.802;2024-01-25T05:57:39;18.02;;;5.72;;
52534;SDS011;38443;53.164;5.802;2024-01-25T06:02:30;23.88;;;4.80;;
52534;SDS011;38443;53.164;5.802;2024-01-25T06:07:23;26.55;;;5.03;;
52534;SDS011;38443;53.164;5.802;2024-01-25T06:12:13;22.73;;;6.57;;
52534;SDS011;38443;53.164;5.802;2024-01-25T06:17:04;20.67;;;5.27;;
52534;SDS011;38443;53.164;5.802;2024-01-25T06:21:54;17.73;;;6.23;;
52534;SDS011;38443;53.164;5.802;2024-01-25T06:26:45;14.90;;;4.93;;
52534;SDS011;38443;53.164;5.802;2024-01-25T06:31:42;30.35;;;5.65;;
52534;SDS011;38443;53.164;5.802;2024-01-25T06:34:08;28.63;;;5.80;;
52534;SDS011;38443;53.164;5.802;2024-01-25T06:38:59;22.03;;;5.80;;
52534;SDS011;38443;53.164;5.802;2024-01-25T06:43:50;23.30;;;5.93;;
52534;SDS011;38443;53.164;5.802;2024-01-25T06:48:40;25.00;;;5.93;;
52534;SDS011;38443;53.164;5.802;2024-01-25T06:53:31;27.43;;;5.23;;
52534;SDS011;38443;53.164;5.802;2024-01-25T06:58:22;15.65;;;4.85;;
52534;SDS011;38443;53.164;5.802;2024-01-25T07:03:13;26.83;;;5.38;;
52534;SDS011;38443;53.164;5.802;2024-01-25T07:05:40;21.15;;;5.82;;
52534;SDS011;38443;53.164;5.802;2024-01-25T07:10:33;18.63;;;5.93;;
52534;SDS011;38443;53.164;5.802;2024-01-25T07:15:24;17.27;;;5.20;;
52534;SDS011;38443;53.164;5.802;2024-01-25T07:20:15;15.73;;;6.23;;
52534;SDS011;38443;53.164;5.802;2024-01-25T07:25:06;15.40;;;5.88;;
52534;SDS011;38443;53.164;5.802;2024-01-25T07:29:56;24.42;;;5.72;;
52534;SDS011;38443;53.164;5.802;2024-01-25T07:34:51;22.92;;;5.53;;
52534;SDS011;38443;53.164;5.802;2024-01-25T07:37:18;28.17;;;6.20;;
52534;SDS011;38443;53.164;5.802;2024-01-25T07:42:09;24.73;;;6.03;;
52534;SDS011;38443;53.164;5.802;2024-01-25T07:47:01;30.33;;;6.38;;
52534;SDS011;38443;53.164;5.802;2024-01-25T07:49:27;25.52;;;5.68;;
52534;SDS011;38443;53.164;5.802;2024-01-25T07:54:21;17.08;;;5.90;;
52534;SDS011;38443;53.164;5.802;2024-01-25T07:56:48;33.78;;;6.45;;
52534;SDS011;38443;53.164;5.802;2024-01-25T08:01:38;19.60;;;5.70;;
52534;SDS011;38443;53.164;5.802;2024-01-25T08:06:29;21.38;;;4.82;;
52534;SDS011;38443;53.164;5.802;2024-01-25T08:11:20;30.55;;;6.63;;
52534;SDS011;38443;53.164;5.802;2024-01-25T08:16:11;25.60;;;5.40;;
52534;SDS011;38443;53.164;5.802;2024-01-25T08:21:01;13.68;;;5.45;;
52534;SDS011;38443;53.164;5.802;2024-01-25T08:25:52;32.85;;;6.80;;
52534;SDS011;38443;53.164;5.802;2024-01-25T08:30:44;15.80;;;5.53;;
52534;SDS011;38443;53.164;5.802;2024-01-25T08:35:35;23.80;;;5.80;;
52534;SDS011;38443;53.164;5.802;2024-01-25T08:40:26;24.13;;;6.33;;
52534;SDS011;38443;53.164;5.802;2024-01-25T08:45:16;23.80;;;5.60;;
52534;SDS011;38443;53.164;5.802;2024-01-25T08:50:10;21.25;;;6.88;;
52534;SDS011;38443;53.164;5.802;2024-01-25T08:52:36;23.17;;;6.47;;
52534;SDS011;38443;53.164;5.802;2024-01-25T08:57:31;24.48;;;5.25;;
52534;SDS011;38443;53.164;5.802;2024-01-25T09:02:23;21.25;;;5.93;;
52534;SDS011;38443;53.164;5.802;2024-01-25T09:04:52;29.30;;;5.82;;
52534;SDS011;38443;53.164;5.802;2024-01-25T09:09:47;25.50;;;7.25;;
52534;SDS011;38443;53.164;5.802;2024-01-25T09:14:39;21.98;;;6.70;;
52534;SDS011;38443;53.164;5.802;2024-01-25T09:19:30;19.17;;;5.97;;
52534;SDS011;38443;53.164;5.802;2024-01-25T09:24:23;27.70;;;6.93;;
52534;SDS011;38443;53.164;5.802;2024-01-25T09:29:13;16.60;;;5.43;;
52534;SDS011;38443;53.164;5.802;2024-01-25T09:34:04;23.30;;;5.27;;
52534;SDS011;38443;53.164;5.802;2024-01-25T09:38:54;22.80;;;6.63;;
52534;SDS011;38443;53.164;5.802;2024-01-25T09:43:45;24.50;;;6.07;;
52534;SDS011;38443;53.164;5.802;2024-01-25T09:48:38;19.25;;;5.68;;
52534;SDS011;38443;53.164;5.802;2024-01-25T09:51:05;20.73;;;5.65;;
52534;SDS011;38443;53.164;5.802;2024-01-25T09:58:42;15.07;;;5.07;;
52534;SDS011;38443;53.164;5.802;2024-01-25T10:01:11;22.60;;;5.07;;
52534;SDS011;38443;53.164;5.802;2024-01-25T10:03:37;17.67;;;6.80;;
52534;SDS011;38443;53.164;5.802;2024-01-25T10:06:07;19.38;;;7.15;;
52534;SDS011;38443;53.164;5.802;2024-01-25T10:08:33;23.90;;;6.35;;
52534;SDS011;38443;53.164;5.802;2024-01-25T10:13:25;26.83;;;5.50;;
52534;SDS011;38443;53.164;5.802;2024-01-25T10:15:51;24.95;;;6.43;;
52534;SDS011;38443;53.164;5.802;2024-01-25T10:20:42;20.52;;;6.55;;
52534;SDS011;38443;53.164;5.802;2024-01-25T10:23:08;27.85;;;6.53;;
52534;SDS011;38443;53.164;5.802;2024-01-25T10:28:00;18.25;;;6.18;;
52534;SDS011;38443;53.164;5.802;2024-01-25T10:32:52;21.17;;;5.65;;
52534;SDS011;38443;53.164;5.802;2024-01-25T10:35:19;24.13;;;6.68;;
52534;SDS011;38443;53.164;5.802;2024-01-25T10:37:45;17.55;;;6.03;;
52534;SDS011;38443;53.164;5.802;2024-01-25T10:42:36;14.82;;;5.78;;
52534;SDS011;38443;53.164;5.802;2024-01-25T10:47:28;24.98;;;8.40;;
52534;SDS011;38443;53.164;5.802;2024-01-25T10:49:59;30.02;;;6.85;;
52534;SDS011;38443;53.164;5.802;2024-01-25T10:54:51;20.42;;;7.60;;
52534;SDS011;38443;53.164;5.802;2024-01-25T10:57:17;23.25;;;6.60;;
52534;SDS011;38443;53.164;5.802;2024-01-25T11:02:08;20.70;;;6.80;;
52534;SDS011;38443;53.164;5.802;2024-01-25T11:07:08;26.63;;;6.67;;
52534;SDS011;38443;53.164;5.802;2024-01-25T11:09:34;19.50;;;6.15;;
52534;SDS011;38443;53.164;5.802;2024-01-25T11:12:01;26.05;;;6.38;;
52534;SDS011;38443;53.164;5.802;2024-01-25T11:14:36;22.42;;;5.95;;
52534;SDS011;38443;53.164;5.802;2024-01-25T11:17:14;17.85;;;5.75;;
52534;SDS011;38443;53.164;5.802;2024-01-25T11:19:40;26.77;;;6.53;;
52534;SDS011;38443;53.164;5.802;2024-01-25T11:24:31;27.70;;;6.80;;
52534;SDS011;38443;53.164;5.802;2024-01-25T11:27:03;18.80;;;5.88;;
52534;SDS011;38443;53.164;5.802;2024-01-25T11:29:29;30.88;;;6.60;;
52534;SDS011;38443;53.164;5.802;2024-01-25T11:34:21;27.00;;;7.28;;
52534;SDS011;38443;53.164;5.802;2024-01-25T11:36:48;23.27;;;6.82;;
52534;SDS011;38443;53.164;5.802;2024-01-25T11:41:40;18.42;;;6.05;;
52534;SDS011;38443;53.164;5.802;2024-01-25T11:44:07;19.35;;;6.25;;
52534;SDS011;38443;53.164;5.802;2024-01-25T11:46:34;21.55;;;6.65;;
52534;SDS011;38443;53.164;5.802;2024-01-25T11:51:25;26.27;;;7.15;;
52534;SDS011;38443;53.164;5.802;2024-01-25T11:56:23;22.48;;;6.55;;
52534;SDS011;38443;53.164;5.802;2024-01-25T11:58:53;18.45;;;7.00;;
52534;SDS011;38443;53.164;5.802;2024-01-25T12:01:21;21.48;;;6.20;;
52534;SDS011;38443;53.164;5.802;2024-01-25T12:03:48;19.98;;;6.13;;
52534;SDS011;38443;53.164;5.802;2024-01-25T12:08:39;22.90;;;6.03;;
52534;SDS011;38443;53.164;5.802;2024-01-25T12:13:41;24.27;;;6.63;;
52534;SDS011;38443;53.164;5.802;2024-01-25T12:16:08;26.98;;;6.53;;
52534;SDS011;38443;53.164;5.802;2024-01-25T12:18:34;26.05;;;6.38;;
52534;SDS011;38443;53.164;5.802;2024-01-25T12:21:00;23.10;;;6.40;;
52534;SDS011;38443;53.164;5.802;2024-01-25T12:23:34;22.70;;;5.63;;
52534;SDS011;38443;53.164;5.802;2024-01-25T12:26:01;20.35;;;7.47;;
52534;SDS011;38443;53.164;5.802;2024-01-25T12:28:29;24.15;;;7.82;;
52534;SDS011;38443;53.164;5.802;2024-01-25T12:30:55;17.67;;;5.90;;
52534;SDS011;38443;53.164;5.802;2024-01-25T12:35:46;24.48;;;6.47;;
52534;SDS011;38443;53.164;5.802;2024-01-25T12:40:37;26.40;;;5.97;;
52534;SDS011;38443;53.164;5.802;2024-01-25T12:45:28;26.83;;;7.00;;
52534;SDS011;38443;53.164;5.802;2024-01-25T12:50:18;23.33;;;6.43;;
52534;SDS011;38443;53.164;5.802;2024-01-25T12:55:10;24.77;;;6.30;;
52534;SDS011;38443;53.164;5.802;2024-01-25T13:00:01;23.95;;;6.72;;
52534;SDS011;38443;53.164;5.802;2024-01-25T13:02:27;22.40;;;7.13;;
52534;SDS011;38443;53.164;5.802;2024-01-25T13:04:52;27.92;;;7.22;;
52534;SDS011;38443;53.164;5.802;2024-01-25T13:07:17;18.58;;;7.35;;
52534;SDS011;38443;53.164;5.802;2024-01-25T13:09:42;15.75;;;6.85;;
52534;SDS011;38443;53.164;5.802;2024-01-25T13:12:08;19.95;;;7.25;;
52534;SDS011;38443;53.164;5.802;2024-01-25T13:16:58;25.87;;;6.33;;
52534;SDS011;38443;53.164;5.802;2024-01-25T13:21:49;21.75;;;5.97;;
52534;SDS011;38443;53.164;5.802;2024-01-25T13:24:14;24.55;;;6.50;;
52534;SDS011;38443;53.164;5.802;2024-01-25T13:29:05;18.95;;;6.40;;
52534;SDS011;38443;53.164;5.802;2024-01-25T13:33:55;20.33;;;6.80;;
52534;SDS011;38443;53.164;5.802;2024-01-25T13:38:46;22.80;;;7.25;;
52534;SDS011;38443;53.164;5.802;2024-01-25T13:43:36;22.37;;;6.73;;
52534;SDS011;38443;53.164;5.802;2024-01-25T13:48:27;18.60;;;5.68;;
52534;SDS011;38443;53.164;5.802;2024-01-25T13:53:17;19.65;;;6.40;;
52534;SDS011;38443;53.164;5.802;2024-01-25T13:55:43;28.73;;;6.18;;
52534;SDS011;38443;53.164;5.802;2024-01-25T14:00:34;16.13;;;5.28;;
52534;SDS011;38443;53.164;5.802;2024-01-25T14:02:59;20.77;;;5.97;;
52534;SDS011;38443;53.164;5.802;2024-01-25T14:05:25;18.88;;;6.18;;
52534;SDS011;38443;53.164;5.802;2024-01-25T14:07:50;17.92;;;5.13;;
52534;SDS011;38443;53.164;5.802;2024-01-25T14:12:41;21.30;;;5.72;;
52534;SDS011;38443;53.164;5.802;2024-01-25T14:15:06;15.35;;;5.28;;
52534;SDS011;38443;53.164;5.802;2024-01-25T14:19:57;22.00;;;6.47;;
52534;SDS011;38443;53.164;5.802;2024-01-25T14:22:22;17.83;;;5.93;;
52534;SDS011;38443;53.164;5.802;2024-01-25T14:27:13;13.00;;;5.53;;
52534;SDS011;38443;53.164;5.802;2024-01-25T14:32:03;20.17;;;5.85;;
52534;SDS011;38443;53.164;5.802;2024-01-25T14:36:54;17.40;;;5.43;;
52534;SDS011;38443;53.164;5.802;2024-01-25T14:41:45;21.33;;;5.77;;
52534;SDS011;38443;53.164;5.802;2024-01-25T14:44:11;26.63;;;7.35;;
52534;SDS011;38443;53.164;5.802;2024-01-25T14:46:37;23.77;;;6.35;;
52534;SDS011;38443;53.164;5.802;2024-01-25T14:51:31;16.85;;;6.43;;
52534;SDS011;38443;53.164;5.802;2024-01-25T14:56:22;18.45;;;5.53;;
52534;SDS011;38443;53.164;5.802;2024-01-25T14:58:47;18.50;;;6.10;;
52534;SDS011;38443;53.164;5.802;2024-01-25T15:03:46;16.08;;;5.22;;
52534;SDS011;38443;53.164;5.802;2024-01-25T15:06:12;14.90;;;5.20;;
52534;SDS011;38443;53.164;5.802;2024-01-25T15:08:38;17.55;;;5.53;;
52534;SDS011;38443;53.164;5.802;2024-01-25T15:13:29;22.25;;;5.78;;
52534;SDS011;38443;53.164;5.802;2024-01-25T15:18:20;16.03;;;4.67;;
52534;SDS011;38443;53.164;5.802;2024-01-25T15:20:46;16.77;;;5.15;;
52534;SDS011;38443;53.164;5.802;2024-01-25T15:25:37;17.67;;;4.17;;
52534;SDS011;38443;53.164;5.802;2024-01-25T15:30:27;24.85;;;6.22;;
52534;SDS011;38443;53.164;5.802;2024-01-25T15:35:18;20.20;;;5.55;;
52534;SDS011;38443;53.164;5.802;2024-01-25T15:40:09;18.48;;;5.18;;
52534;SDS011;38443;53.164;5.802;2024-01-25T15:42:39;20.63;;;8.32;;
52534;SDS011;38443;53.164;5.802;2024-01-25T15:45:05;18.77;;;5.13;;
52534;SDS011;38443;53.164;5.802;2024-01-25T15:47:31;16.38;;;5.43;;
52534;SDS011;38443;53.164;5.802;2024-01-25T15:49:57;17.08;;;5.35;;
52534;SDS011;38443;53.164;5.802;2024-01-25T15:54:49;27.40;;;6.90;;
52534;SDS011;38443;53.164;5.802;2024-01-25T15:57:14;23.13;;;5.80;;
52534;SDS011;38443;53.164;5.802;2024-01-25T16:02:05;24.40;;;6.93;;
52534;SDS011;38443;53.164;5.802;2024-01-25T16:04:30;13.35;;;4.78;;
52534;SDS011;38443;53.164;5.802;2024-01-25T16:09:20;17.00;;;5.23;;
52534;SDS011;38443;53.164;5.802;2024-01-25T16:14:11;25.60;;;5.95;;
52534;SDS011;38443;53.164;5.802;2024-01-25T16:19:02;22.70;;;4.80;;
52534;SDS011;38443;53.164;5.802;2024-01-25T16:23:53;18.65;;;6.05;;
52534;SDS011;38443;53.164;5.802;2024-01-25T16:28:43;22.90;;;6.50;;
52534;SDS011;38443;53.164;5.802;2024-01-25T16:33:33;18.80;;;5.33;;
52534;SDS011;38443;53.164;5.802;2024-01-25T16:38:24;23.80;;;5.93;;
52534;SDS011;38443;53.164;5.802;2024-01-25T16:43:14;15.82;;;6.18;;
52534;SDS011;38443;53.164;5.802;2024-01-25T16:48:05;15.07;;;5.47;;
52534;SDS011;38443;53.164;5.802;2024-01-25T16:52:57;21.00;;;5.82;;
52534;SDS011;38443;53.164;5.802;2024-01-25T16:55:23;17.70;;;6.07;;
52534;SDS011;38443;53.164;5.802;2024-01-25T17:00:13;19.45;;;6.15;;
52534;SDS011;38443;53.164;5.802;2024-01-25T17:05:04;32.27;;;9.13;;
52534;SDS011;38443;53.164;5.802;2024-01-25T17:09:55;14.27;;;6.03;;
52534;SDS011;38443;53.164;5.802;2024-01-25T17:14:46;25.75;;;7.13;;
52534;SDS011;38443;53.164;5.802;2024-01-25T17:19:37;21.33;;;7.63;;
52534;SDS011;38443;53.164;5.802;2024-01-25T17:24:28;22.98;;;7.57;;
52534;SDS011;38443;53.164;5.802;2024-01-25T17:29:18;22.27;;;8.13;;
52534;SDS011;38443;53.164;5.802;2024-01-25T17:34:09;22.70;;;7.03;;
52534;SDS011;38443;53.164;5.802;2024-01-25T17:38:59;21.13;;;6.80;;
52534;SDS011;38443;53.164;5.802;2024-01-25T17:43:50;18.50;;;9.55;;
52534;SDS011;38443;53.164;5.802;2024-01-25T17:46:15;19.90;;;7.68;;
52534;SDS011;38443;53.164;5.802;2024-01-25T17:51:06;33.20;;;10.30;;
52534;SDS011;38443;53.164;5.802;2024-01-25T17:55:57;30.88;;;9.75;;
52534;SDS011;38443;53.164;5.802;2024-01-25T17:58:24;23.95;;;10.77;;
52534;SDS011;38443;53.164;5.802;2024-01-25T18:03:15;31.75;;;12.35;;
52534;SDS011;38443;53.164;5.802;2024-01-25T18:08:06;27.20;;;11.33;;
52534;SDS011;38443;53.164;5.802;2024-01-25T18:12:56;30.53;;;13.07;;
52534;SDS011;38443;53.164;5.802;2024-01-25T18:17:47;36.27;;;14.83;;
52534;SDS011;38443;53.164;5.802;2024-01-25T18:22:37;41.00;;;14.48;;
52534;SDS011;38443;53.164;5.802;2024-01-25T18:25:03;30.02;;;14.52;;
52534;SDS011;38443;53.164;5.802;2024-01-25T18:27:29;40.45;;;15.32;;
52534;SDS011;38443;53.164;5.802;2024-01-25T18:32:20;53.15;;;18.02;;
52534;SDS011;38443;53.164;5.802;2024-01-25T18:34:46;42.97;;;16.67;;
52534;SDS011;38443;53.164;5.802;2024-01-25T18:39:37;38.90;;;17.48;;
52534;SDS011;38443;53.164;5.802;2024-01-25T18:42:02;42.03;;;17.27;;
52534;SDS011;38443;53.164;5.802;2024-01-25T18:44:27;38.63;;;15.60;;
52534;SDS011;38443;53.164;5.802;2024-01-25T18:46:53;42.65;;;17.98;;
52534;SDS011;38443;53.164;5.802;2024-01-25T18:49:18;44.53;;;18.80;;
52534;SDS011;38443;53.164;5.802;2024-01-25T18:54:09;43.75;;;16.55;;
52534;SDS011;38443;53.164;5.802;2024-01-25T18:56:37;47.35;;;17.80;;
52534;SDS011;38443;53.164;5.802;2024-01-25T18:59:03;49.03;;;16.67;;
52534;SDS011;38443;53.164;5.802;2024-01-25T19:03:54;39.33;;;19.38;;
52534;SDS011;38443;53.164;5.802;2024-01-25T19:06:20;50.97;;;19.95;;
52534;SDS011;38443;53.164;5.802;2024-01-25T19:08:46;46.38;;;19.30;;
52534;SDS011;38443;53.164;5.802;2024-01-25T19:13:37;44.13;;;18.57;;
52534;SDS011;38443;53.164;5.802;2024-01-25T19:18:28;39.53;;;17.50;;
52534;SDS011;38443;53.164;5.802;2024-01-25T19:20:53;41.20;;;17.85;;
52534;SDS011;38443;53.164;5.802;2024-01-25T19:23:19;51.78;;;18.80;;
52534;SDS011;38443;53.164;5.802;2024-01-25T19:28:10;54.95;;;19.15;;
52534;SDS011;38443;53.164;5.802;2024-01-25T19:30:35;45.30;;;18.88;;
52534;SDS011;38443;53.164;5.802;2024-01-25T19:33:01;46.95;;;20.80;;
52534;SDS011;38443;53.164;5.802;2024-01-25T19:35:27;65.30;;;20.60;;
52534;SDS011;38443;53.164;5.802;2024-01-25T19:40:18;45.72;;;17.08;;
52534;SDS011;38443;53.164;5.802;2024-01-25T19:45:09;38.97;;;17.88;;
52534;SDS011;38443;53.164;5.802;2024-01-25T19:47:35;51.00;;;19.83;;
52534;SDS011;38443;53.164;5.802;2024-01-25T19:52:25;39.97;;;17.70;;
52534;SDS011;38443;53.164;5.802;2024-01-25T19:54:51;45.88;;;18.52;;
52534;SDS011;38443;53.164;5.802;2024-01-25T19:59:42;42.40;;;17.80;;
52534;SDS011;38443;53.164;5.802;2024-01-25T20:04:34;38.65;;;15.30;;
52534;SDS011;38443;53.164;5.802;2024-01-25T20:07:00;43.22;;;16.10;;
52534;SDS011;38443;53.164;5.802;2024-01-25T20:11:50;35.90;;;17.83;;
52534;SDS011;38443;53.164;5.802;2024-01-25T20:16:41;32.73;;;16.87;;
52534;SDS011;38443;53.164;5.802;2024-01-25T20:21:31;43.40;;;16.20;;
52534;SDS011;38443;53.164;5.802;2024-01-25T20:26:22;36.20;;;16.23;;
52534;SDS011;38443;53.164;5.802;2024-01-25T20:31:14;29.67;;;15.57;;
52534;SDS011;38443;53.164;5.802;2024-01-25T20:33:41;36.30;;;13.90;;
52534;SDS011;38443;53.164;5.802;2024-01-25T22:48:05;41.83;;;15.07;;
52534;SDS011;38443;53.164;5.802;2024-01-25T22:50:30;43.78;;;16.02;;
52534;SDS011;38443;53.164;5.802;2024-01-25T22:55:21;35.03;;;14.27;;
52534;SDS011;38443;53.164;5.802;2024-01-25T22:57:46;33.70;;;14.70;;
52534;SDS011;38443;53.164;5.802;2024-01-25T23:00:12;35.60;;;13.63;;
52534;SDS011;38443;53.164;5.802;2024-01-25T23:02:43;31.77;;;14.55;;
52534;SDS011;38443;53.164;5.802;2024-01-25T23:07:35;32.47;;;13.95;;
52534;SDS011;38443;53.164;5.802;2024-01-25T23:10:01;34.15;;;13.88;;
52534;SDS011;38443;53.164;5.802;2024-01-25T23:12:26;31.23;;;13.23;;
52534;SDS011;38443;53.164;5.802;2024-01-25T23:17:16;28.70;;;12.77;;
52534;SDS011;38443;53.164;5.802;2024-01-25T23:19:42;28.30;;;13.65;;
52534;SDS011;38443;53.164;5.802;2024-01-25T23:22:07;33.35;;;13.07;;
52534;SDS011;38443;53.164;5.802;2024-01-25T23:24:33;37.83;;;13.63;;
52534;SDS011;38443;53.164;5.802;2024-01-25T23:29:23;31.30;;;14.33;;
52534;SDS011;38443;53.164;5.802;2024-01-25T23:34:16;28.42;;;13.07;;
52534;SDS011;38443;53.164;5.802;2024-01-25T23:36:42;29.83;;;13.75;;
52534;SDS011;38443;53.164;5.802;2024-01-25T23:41:33;28.70;;;11.55;;
52534;SDS011;38443;53.164;5.802;2024-01-25T23:46:24;29.73;;;12.47;;
52534;SDS011;38443;53.164;5.802;2024-01-25T23:48:49;26.73;;;12.20;;
52534;SDS011;38443;53.164;5.802;2024-01-25T23:53:40;28.47;;;12.37;;
52534;SDS011;38443;53.164;5.802;2024-01-25T23:58:30;26.73;;;12.10;;
